Sultan Atasoy — TCYG9 — position and weather

sailwx.info

Track history (hours):
 
Tides and Currents Weather Stations Pressure Air Temp Water Temp Dewpoint Dewpoint Depression Visibility Wind Speed Wind Dir Waves Ship Positions

Sultan Atasoy

Last reported at 2017-Oct-22 15:13 UTC. Time now 2017-Oct-22 15:35 UTC.
Position N 40°53' E 029°12'.

Length 109 m; draft 4.6 m.

Type: Ship. MMSI: 271040963.

Date/timePositionNaut miles runAvg speedWind from/ knotsBaromVisibWave heightAir tempDewpointWater temp
2017-Oct-22 15:13N 40°53' E 029°12'0 0.1
2017-Oct-22 14:49N 40°53' E 029°12'0 0.0
2017-Oct-22 14:25N 40°53' E 029°12'0 0.1
2017-Oct-22 13:55N 40°53' E 029°12'0 0.0
2017-Oct-22 13:25N 40°53' E 029°12'0 0.1
2017-Oct-22 12:55N 40°53' E 029°12'0 0.0
2017-Oct-22 12:25N 40°53' E 029°12'0 0.0
2017-Oct-22 11:55N 40°53' E 029°12'0 0.0
2017-Oct-22 11:25N 40°53' E 029°12'0 0.0
2017-Oct-22 10:55N 40°53' E 029°12'0 0.0
2017-Oct-22 10:19N 40°53' E 029°12'0 0.0
2017-Oct-22 09:55N 40°53' E 029°12'0 0.0
2017-Oct-22 09:25N 40°53' E 029°12'0 0.0
2017-Oct-22 08:49N 40°53' E 029°12'0 0.1
2017-Oct-22 08:19N 40°53' E 029°12'0 0.2
2017-Oct-22 07:49N 40°53' E 029°12'0 0.1
2017-Oct-22 07:25N 40°53' E 029°12'0 0.0
2017-Oct-22 06:49N 40°53' E 029°12'0 0.0
2017-Oct-22 06:25N 40°53' E 029°12'0 0.0
2017-Oct-22 05:37N 40°53' E 029°12'0 0.0
2017-Oct-22 05:25N 40°53' E 029°12'0 0.0
2017-Oct-22 04:49N 40°53' E 029°12'0 0.0
2017-Oct-22 04:25N 40°53' E 029°12'0 0.1
2017-Oct-22 03:55N 40°53' E 029°12'0 0.0
2017-Oct-22 03:19N 40°53' E 029°12'0 0.0
2017-Oct-22 02:49N 40°53' E 029°12'0 0.0
2017-Oct-22 02:25N 40°53' E 029°12'0 0.0
2017-Oct-22 01:55N 40°53' E 029°12'0 0.1
2017-Oct-22 01:25N 40°53' E 029°12'0 1.0
2017-Oct-22 01:00N 40°52' E 029°12'4 8.1
2017-Oct-22 00:30N 40°54' E 029°07'611.8
2017-Oct-22 00:00N 40°58' E 029°00'1610.6
2017-Oct-21 22:31N 41°12' E 029°07'011.3
2017-Oct-21 22:30N 41°13' E 029°07'4 7.5
2017-Oct-21 22:00N 41°16' E 029°06'2 4.2
2017-Oct-21 21:30N 41°17' E 029°03'10 0.4
2017-Oct-20 21:34N 41°21' E 029°15'111.9
2017-Oct-20 21:30N 41°21' E 029°16'611.9
2017-Oct-20 21:00N 41°23' E 029°24'611.5
2017-Oct-20 20:30N 41°24' E 029°31'611.6
2017-Oct-20 20:00N 41°26' E 029°39'611.6
2017-Oct-20 19:30N 41°27' E 029°46'611.3
2017-Oct-20 19:00N 41°29' E 029°53'611.3
2017-Oct-20 18:29N 41°30' E 030°01'511.0
2017-Oct-20 18:00N 41°31' E 030°08'510.9
2017-Oct-20 17:31N 41°32' E 030°15'611.2
2017-Oct-20 17:00N 41°34' E 030°22'510.9
2017-Oct-20 16:30N 41°35' E 030°29'611.3
2017-Oct-20 16:00N 41°36' E 030°37'612.0
2017-Oct-20 15:30N 41°38' E 030°45'612.5
2017-Oct-20 15:00N 41°39' E 030°53'1312.5
2017-Oct-20 14:00N 41°40' E 031°09'612.2
2017-Oct-20 13:30N 41°41' E 031°17'611.9
2017-Oct-20 13:00N 41°42' E 031°26'611.7
2017-Oct-20 12:30N 41°44' E 031°33'611.6
2017-Oct-20 12:00N 41°45' E 031°41'611.6
2017-Oct-20 11:30N 41°46' E 031°48'711.5
2017-Oct-20 10:56N 41°47' E 031°57'511.4
2017-Oct-20 10:30N 41°48' E 032°03'811.3
2017-Oct-20 09:46N 41°50' E 032°14'310.9
2017-Oct-20 09:30N 41°50' E 032°18'2111.5
2017-Oct-20 07:38N 41°58' E 032°45'212.0
2017-Oct-20 07:30N 41°59' E 032°47'812.1
2017-Oct-20 06:49N 42°01' E 032°58'912.0
2017-Oct-20 06:05N 42°04' E 033°09'111.6
2017-Oct-20 06:00N 42°04' E 033°10'811.6
2017-Oct-20 05:17N 42°07' E 033°20'411.5
2017-Oct-20 04:59N 42°09' E 033°25'811.7
2017-Oct-20 04:20N 42°09' E 033°35'412.2
2017-Oct-20 04:00N 42°10' E 033°40'612.3
2017-Oct-20 03:30N 42°10' E 033°49'1612.6
2017-Oct-20 02:16N 42°10' E 034°10'412.8
2017-Oct-20 01:58N 42°10' E 034°15'612.4
2017-Oct-20 01:30N 42°10' E 034°23'612.1
2017-Oct-20 01:00N 42°10' E 034°31'612.1
2017-Oct-20 00:30N 42°10' E 034°39'612.2
2017-Oct-20 00:00N 42°10' E 034°47'612.4
2017-Oct-19 23:30N 42°10' E 034°56'611.9
2017-Oct-19 23:00N 42°09' E 035°03'611.8
2017-Oct-19 22:30N 42°07' E 035°11'611.5
2017-Oct-19 22:00N 42°05' E 035°18'611.7
2017-Oct-19 21:29N 42°03' E 035°26'  
Track history (hours):
 
Tides and Currents Weather Stations Pressure Air Temp Water Temp Dewpoint Dewpoint Depression Visibility Wind Speed Wind Dir Waves Ship Positions

Sultan Atasoy

Last reported at 2017-Oct-22 15:13 UTC. Time now 2017-Oct-22 15:35 UTC.
Position N 40°53' E 029°12'.

Length 109 m; draft 4.6 m.

Type: Ship. MMSI: 271040963.

Date/timePositionNaut miles runAvg speedWind from/ knotsBaromVisibWave heightAir tempDewpointWater temp
2017-Oct-22 15:13N 40°53' E 029°12'0 0.1
2017-Oct-22 14:49N 40°53' E 029°12'0 0.0
2017-Oct-22 14:25N 40°53' E 029°12'0 0.1
2017-Oct-22 13:55N 40°53' E 029°12'0 0.0
2017-Oct-22 13:25N 40°53' E 029°12'0 0.1
2017-Oct-22 12:55N 40°53' E 029°12'0 0.0
2017-Oct-22 12:25N 40°53' E 029°12'0 0.0
2017-Oct-22 11:55N 40°53' E 029°12'0 0.0
2017-Oct-22 11:25N 40°53' E 029°12'0 0.0
2017-Oct-22 10:55N 40°53' E 029°12'0 0.0
2017-Oct-22 10:19N 40°53' E 029°12'0 0.0
2017-Oct-22 09:55N 40°53' E 029°12'0 0.0
2017-Oct-22 09:25N 40°53' E 029°12'0 0.0
2017-Oct-22 08:49N 40°53' E 029°12'0 0.1
2017-Oct-22 08:19N 40°53' E 029°12'0 0.2
2017-Oct-22 07:49N 40°53' E 029°12'0 0.1
2017-Oct-22 07:25N 40°53' E 029°12'0 0.0
2017-Oct-22 06:49N 40°53' E 029°12'0 0.0
2017-Oct-22 06:25N 40°53' E 029°12'0 0.0
2017-Oct-22 05:37N 40°53' E 029°12'0 0.0
2017-Oct-22 05:25N 40°53' E 029°12'0 0.0
2017-Oct-22 04:49N 40°53' E 029°12'0 0.0
2017-Oct-22 04:25N 40°53' E 029°12'0 0.1
2017-Oct-22 03:55N 40°53' E 029°12'0 0.0
2017-Oct-22 03:19N 40°53' E 029°12'0 0.0
2017-Oct-22 02:49N 40°53' E 029°12'0 0.0
2017-Oct-22 02:25N 40°53' E 029°12'0 0.0
2017-Oct-22 01:55N 40°53' E 029°12'0 0.1
2017-Oct-22 01:25N 40°53' E 029°12'0 1.0
2017-Oct-22 01:00N 40°52' E 029°12'4 8.1
2017-Oct-22 00:30N 40°54' E 029°07'611.8
2017-Oct-22 00:00N 40°58' E 029°00'1610.6
2017-Oct-21 22:31N 41°12' E 029°07'011.3
2017-Oct-21 22:30N 41°13' E 029°07'4 7.5
2017-Oct-21 22:00N 41°16' E 029°06'2 4.2
2017-Oct-21 21:30N 41°17' E 029°03'10 0.4
2017-Oct-20 21:34N 41°21' E 029°15'111.9
2017-Oct-20 21:30N 41°21' E 029°16'611.9
2017-Oct-20 21:00N 41°23' E 029°24'611.5
2017-Oct-20 20:30N 41°24' E 029°31'611.6
2017-Oct-20 20:00N 41°26' E 029°39'611.6
2017-Oct-20 19:30N 41°27' E 029°46'611.3
2017-Oct-20 19:00N 41°29' E 029°53'611.3
2017-Oct-20 18:29N 41°30' E 030°01'511.0
2017-Oct-20 18:00N 41°31' E 030°08'510.9
2017-Oct-20 17:31N 41°32' E 030°15'611.2
2017-Oct-20 17:00N 41°34' E 030°22'510.9
2017-Oct-20 16:30N 41°35' E 030°29'611.3
2017-Oct-20 16:00N 41°36' E 030°37'612.0
2017-Oct-20 15:30N 41°38' E 030°45'612.5
2017-Oct-20 15:00N 41°39' E 030°53'1312.5
2017-Oct-20 14:00N 41°40' E 031°09'612.2
2017-Oct-20 13:30N 41°41' E 031°17'611.9
2017-Oct-20 13:00N 41°42' E 031°26'611.7
2017-Oct-20 12:30N 41°44' E 031°33'611.6
2017-Oct-20 12:00N 41°45' E 031°41'611.6
2017-Oct-20 11:30N 41°46' E 031°48'711.5
2017-Oct-20 10:56N 41°47' E 031°57'511.4
2017-Oct-20 10:30N 41°48' E 032°03'811.3
2017-Oct-20 09:46N 41°50' E 032°14'310.9
2017-Oct-20 09:30N 41°50' E 032°18'2111.5
2017-Oct-20 07:38N 41°58' E 032°45'212.0
2017-Oct-20 07:30N 41°59' E 032°47'812.1
2017-Oct-20 06:49N 42°01' E 032°58'912.0
2017-Oct-20 06:05N 42°04' E 033°09'111.6
2017-Oct-20 06:00N 42°04' E 033°10'811.6
2017-Oct-20 05:17N 42°07' E 033°20'411.5
2017-Oct-20 04:59N 42°09' E 033°25'811.7
2017-Oct-20 04:20N 42°09' E 033°35'412.2
2017-Oct-20 04:00N 42°10' E 033°40'612.3
2017-Oct-20 03:30N 42°10' E 033°49'1612.6
2017-Oct-20 02:16N 42°10' E 034°10'412.8
2017-Oct-20 01:58N 42°10' E 034°15'612.4
2017-Oct-20 01:30N 42°10' E 034°23'612.1
2017-Oct-20 01:00N 42°10' E 034°31'612.1
2017-Oct-20 00:30N 42°10' E 034°39'612.2
2017-Oct-20 00:00N 42°10' E 034°47'612.4
2017-Oct-19 23:30N 42°10' E 034°56'611.9
2017-Oct-19 23:00N 42°09' E 035°03'611.8
2017-Oct-19 22:30N 42°07' E 035°11'611.5
2017-Oct-19 22:00N 42°05' E 035°18'611.7
2017-Oct-19 21:29N 42°03' E 035°26'  

Dump ship's entire track history